Nearby METAR Reports

 

K1V6 - Canon City, Colorado, USA
Distance from station: NE 34mi, 55km
Updated: 12/07/2022 11:55am MST
Clear
Clear
 Wind from ESE
Wind: ESE 7 mph , 11 km/h
Temperature: 50°F , 10°C
Wind Chill: 47°F , 8°C
Dew Point: 23°F , -5°C
Humidity: 35%
Barometer: 30.11 inHg , 1019.6 hPa
Clouds: Clear
Visibility: 10 miles , 16 km
2022/12/07 18:55 K1V6 071855Z AUTO 12006KT 10SM CLR 10/M05 A3011 RMK AO2
K04V - Saguache Muni, Colorado, USA
Distance from station: W 35mi, 56km
Updated: 12/07/2022 11:34am MST
Mostly cloudy
Mostly cloudy
 Wind from ESE
Wind: ESE 5 mph , 7 km/h
Temperature: 39°F , 4°C
Wind Chill: 35°F , 2°C
Dew Point: 27°F , -3°C
Humidity: 61%
Barometer: 30.21 inHg , 1023 hPa
Clouds: Mostly cloudy
Visibility: 10 miles , 16 km
Cloud details: Mostly cloudy 6000 ft
2022/12/07 18:34 K04V 071834Z AUTO 12004KT 10SM BKN060 04/M03 A3021 RMK AO2
 
KANK - Salida, Colorado, USA
Distance from station: NW 43mi, 69km
Updated: 12/07/2022 11:30am MST
Mostly cloudy
Mostly cloudy
 Wind from SE
Wind: SE 9 mph , 15 km/h, Gust: 17 mph , 28 km/h
Temperature: 46°F , 8°C
Wind Chill: 41°F , 5°C
Dew Point: 25°F , -4°C
Humidity: 43%
Barometer: 30.22 inHg , 1023.4 hPa
Clouds: Mostly cloudy
Visibility: 10 miles , 16 km
Cloud details: Mostly cloudy 6000 ft
2022/12/07 18:30 KANK 071830Z AUTO 14008G15KT 10SM BKN060 08/M04 A3022 RMK AO1 T00761044
KVTP - La Veta Pass, Colorado, USA
Distance from station: SSE 44mi, 71km
Updated: 12/07/2022 11:55am MST
Clear
Clear
 Wind from WSW
Wind: WSW 9 mph , 15 km/h, Gust: 17 mph , 28 km/h
Temperature: 32°F , 0°C
Wind Chill: 24°F , -4°C
Dew Point: 18°F , -8°C
Humidity: 55%
Barometer: 30.19 inHg , 1022.4 hPa
Clouds: Clear
Visibility: 10 miles , 16 km
2022/12/07 18:55 KVTP 071855Z AUTO 25008G15KT 10SM CLR 00/M08 A3019 RMK AO2
 
KALS - Alamosa, Colorado, USA
Distance from station: SSW 48mi, 77km
Updated: 12/07/2022 11:52am MST
Clear
Clear
 Wind from SW
Wind: SW 12 mph , 19 km/h, Gust: 22 mph , 35 km/h
Temperature: 46°F , 8°C
Wind Chill: 40°F , 4°C
Dew Point: 25°F , -4°C
Humidity: 43%
Barometer: 30.14 inHg , 1020.7 hPa
Clouds: Clear
Visibility: 10 miles , 16 km
2022/12/07 18:52 KALS 071852Z AUTO 22010G19KT 10SM CLR 08/M04 A3014 RMK AO2 SLP189 T00831039